createdAt,value
2022-10-17T00:00:34.696Z,5.30
2022-10-17T00:03:02.805Z,6.35
2022-10-17T00:05:31.827Z,5.35
2022-10-17T00:07:59.484Z,5.82
2022-10-17T00:10:27.152Z,5.18
2022-10-17T00:12:54.794Z,5.53
2022-10-17T00:15:23.034Z,6.22
2022-10-17T00:17:50.814Z,6.68
2022-10-17T00:20:18.647Z,6.00
2022-10-17T00:22:47.643Z,6.10
2022-10-17T00:25:15.312Z,6.35
2022-10-17T00:27:43.392Z,6.63
2022-10-17T00:30:13.276Z,6.00
2022-10-17T00:32:41.193Z,6.07
2022-10-17T00:35:09.807Z,6.25
2022-10-17T00:37:37.464Z,6.05
2022-10-17T00:40:08.153Z,6.55
2022-10-17T00:42:35.953Z,6.40
2022-10-17T00:45:15.022Z,6.53
2022-10-17T00:47:43.067Z,6.93
2022-10-17T00:50:10.852Z,6.50
2022-10-17T00:52:38.729Z,6.90
2022-10-17T00:55:11.494Z,7.03
2022-10-17T00:57:40.169Z,6.72
2022-10-17T01:00:10.618Z,6.60
2022-10-17T01:02:38.842Z,6.18
2022-10-17T01:05:07.681Z,6.75
2022-10-17T01:07:37.266Z,6.72
2022-10-17T01:10:06.289Z,6.88
2022-10-17T01:12:42.860Z,6.87
2022-10-17T01:15:14.315Z,6.50
2022-10-17T01:17:52.109Z,6.40
2022-10-17T01:20:44.220Z,6.75
2022-10-17T01:23:24.764Z,6.90
2022-10-17T01:25:57.108Z,7.75
2022-10-17T01:31:13.798Z,6.72
2022-10-17T01:33:48.733Z,7.50
2022-10-17T01:36:26.287Z,7.32
2022-10-17T01:39:00.280Z,7.47
2022-10-17T01:41:36.049Z,7.60
2022-10-17T01:44:08.978Z,8.15
2022-10-17T01:46:39.498Z,7.63
2022-10-17T01:49:09.623Z,8.30
2022-10-17T01:51:39.284Z,7.35
2022-10-17T01:54:11.907Z,7.95
2022-10-17T01:56:40.534Z,7.40
2022-10-17T01:59:12.697Z,7.53
2022-10-17T02:01:43.014Z,7.30
2022-10-17T02:04:11.742Z,8.40
2022-10-17T02:06:39.772Z,7.43
2022-10-17T02:09:21.964Z,7.82
2022-10-17T02:12:03.574Z,8.27
2022-10-17T02:14:39.325Z,7.53
2022-10-17T02:17:12.363Z,8.35
2022-10-17T02:19:48.062Z,7.72
2022-10-17T02:22:20.970Z,7.80
2022-10-17T02:24:51.396Z,7.50
2022-10-17T02:27:26.613Z,7.50
2022-10-17T02:29:58.454Z,7.63
2022-10-17T02:32:32.744Z,7.55
2022-10-17T02:35:01.862Z,7.75
2022-10-17T02:37:31.566Z,8.20
2022-10-17T02:40:00.770Z,7.18
2022-10-17T02:42:29.472Z,6.95
2022-10-17T02:45:01.018Z,8.02
2022-10-17T02:47:33.832Z,7.38
2022-10-17T02:50:02.242Z,7.83
2022-10-17T02:52:33.523Z,7.63
2022-10-17T02:55:05.102Z,8.27
2022-10-17T02:57:37.265Z,8.25
2022-10-17T03:00:07.150Z,8.02
2022-10-17T03:02:42.395Z,7.80
2022-10-17T03:05:10.695Z,8.68
2022-10-17T03:07:38.365Z,8.80
2022-10-17T03:10:06.909Z,8.68
2022-10-17T03:12:34.682Z,8.68
2022-10-17T03:15:02.330Z,8.60
2022-10-17T03:17:29.914Z,8.32
2022-10-17T03:19:59.166Z,9.40
2022-10-17T03:22:27.048Z,7.95
2022-10-17T03:24:54.890Z,8.95
2022-10-17T03:27:22.619Z,8.75
2022-10-17T03:29:50.282Z,9.32
2022-10-17T03:32:17.945Z,8.52
2022-10-17T03:34:45.745Z,8.70
2022-10-17T03:37:14.946Z,9.18
2022-10-17T03:39:42.599Z,8.70
2022-10-17T03:42:10.259Z,8.45
2022-10-17T03:44:37.929Z,8.57
2022-10-17T03:47:08.096Z,9.55
2022-10-17T03:49:38.227Z,8.88
2022-10-17T03:52:05.983Z,8.77
2022-10-17T03:54:34.915Z,9.07
2022-10-17T03:57:02.774Z,8.55
2022-10-17T03:59:30.486Z,9.10
2022-10-17T04:01:58.165Z,8.77
2022-10-17T04:04:25.914Z,9.00
2022-10-17T04:06:53.511Z,8.95
2022-10-17T04:09:21.106Z,8.65
2022-10-17T04:11:50.153Z,8.88
2022-10-17T04:14:17.856Z,8.63
2022-10-17T04:16:45.470Z,8.77
2022-10-17T04:19:14.221Z,8.77
2022-10-17T04:21:41.928Z,9.05
2022-10-17T04:24:11.597Z,8.75
2022-10-17T04:26:39.320Z,9.00
2022-10-17T04:29:08.368Z,9.00
2022-10-17T04:31:35.995Z,8.45
2022-10-17T04:34:03.656Z,9.13
2022-10-17T04:36:31.285Z,8.57
2022-10-17T04:38:58.938Z,9.43
2022-10-17T04:41:26.962Z,7.85
2022-10-17T04:43:54.928Z,9.88
2022-10-17T04:46:24.030Z,9.20
2022-10-17T04:48:51.652Z,8.88
2022-10-17T04:51:21.972Z,8.23
2022-10-17T04:53:52.214Z,8.88
2022-10-17T04:56:21.556Z,8.73
2022-10-17T04:58:49.418Z,8.38
2022-10-17T05:01:19.175Z,7.90
2022-10-17T05:03:48.561Z,8.95
2022-10-17T05:06:18.149Z,8.40
2022-10-17T05:08:46.164Z,8.97
2022-10-17T05:11:21.379Z,8.13
2022-10-17T05:13:52.259Z,9.23
2022-10-17T05:16:19.954Z,8.23
2022-10-17T05:18:52.914Z,8.80
2022-10-17T05:21:21.734Z,8.57
2022-10-17T05:23:49.474Z,9.10
2022-10-17T05:26:17.266Z,8.25
2022-10-17T05:28:45.058Z,8.70
2022-10-17T05:31:13.178Z,8.88
2022-10-17T05:33:41.109Z,8.60
2022-10-17T05:36:10.473Z,8.70
2022-10-17T05:38:38.126Z,8.88
2022-10-17T05:41:06.772Z,8.37
2022-10-17T05:43:35.108Z,7.85
2022-10-17T05:46:05.372Z,8.05
2022-10-17T05:48:33.054Z,8.45
2022-10-17T05:51:01.405Z,8.90
2022-10-17T05:53:33.359Z,8.53
2022-10-17T05:56:02.173Z,8.05
2022-10-17T05:58:49.110Z,8.02
2022-10-17T06:01:17.820Z,8.70
2022-10-17T06:03:45.444Z,8.50
2022-10-17T06:06:14.586Z,8.20
2022-10-17T06:08:43.967Z,8.20
2022-10-17T06:11:11.674Z,7.87
2022-10-17T06:13:39.631Z,8.32
2022-10-17T06:16:07.882Z,7.63
2022-10-17T06:18:35.636Z,8.55
2022-10-17T06:21:04.210Z,8.05
2022-10-17T06:23:31.921Z,7.60
2022-10-17T06:26:02.396Z,7.70
2022-10-17T06:28:30.446Z,8.32
2022-10-17T06:30:58.183Z,7.82
2022-10-17T06:33:25.973Z,7.90
2022-10-17T06:35:53.762Z,7.53
2022-10-17T06:38:21.615Z,7.38
2022-10-17T06:40:49.226Z,7.93
2022-10-17T06:43:18.286Z,7.65
2022-10-17T06:45:47.422Z,7.63
2022-10-17T06:48:15.482Z,7.73
2022-10-17T06:50:43.197Z,7.78
2022-10-17T06:53:10.863Z,7.70
2022-10-17T06:55:38.507Z,7.32
2022-10-17T06:58:06.151Z,6.97
2022-10-17T07:00:35.541Z,6.90
2022-10-17T07:03:03.332Z,7.55
2022-10-17T07:05:30.970Z,7.20
2022-10-17T07:07:58.650Z,6.82
2022-10-17T07:10:27.491Z,7.10
2022-10-17T07:12:55.115Z,7.28
2022-10-17T07:15:22.865Z,6.70
2022-10-17T07:17:51.900Z,6.90
2022-10-17T07:20:19.573Z,6.75
2022-10-17T07:22:47.257Z,6.95
2022-10-17T07:25:14.986Z,6.95
2022-10-17T07:27:42.644Z,6.85
2022-10-17T07:30:11.660Z,6.88
2022-10-17T07:32:39.299Z,6.88
2022-10-17T07:35:08.913Z,6.82
2022-10-17T07:37:36.753Z,6.32
2022-10-17T07:40:04.994Z,6.50
2022-10-17T07:42:32.651Z,6.22
2022-10-17T07:45:00.623Z,6.43
2022-10-17T07:47:31.302Z,6.78
2022-10-17T07:49:59.440Z,6.45
2022-10-17T07:52:28.735Z,6.03
2022-10-17T07:54:56.508Z,6.50
2022-10-17T07:57:24.163Z,6.38
2022-10-17T07:59:51.872Z,5.93
2022-10-17T08:02:23.763Z,5.85
2022-10-17T08:04:51.476Z,5.90
2022-10-17T08:07:24.094Z,6.60
2022-10-17T08:09:56.084Z,6.47
2022-10-17T08:12:25.014Z,6.07
2022-10-17T08:14:52.669Z,5.70
2022-10-17T08:17:20.302Z,5.93
2022-10-17T08:19:47.975Z,6.30
2022-10-17T08:22:15.627Z,6.60
2022-10-17T08:24:44.487Z,5.82
2022-10-17T08:27:13.795Z,6.30
2022-10-17T08:29:42.057Z,6.10
2022-10-17T08:32:10.468Z,6.38
2022-10-17T08:34:38.182Z,6.25
2022-10-17T08:37:06.068Z,6.13
2022-10-17T08:39:33.798Z,6.38
2022-10-17T08:42:10.373Z,5.83
2022-10-17T08:44:49.867Z,6.70
2022-10-17T08:47:22.045Z,6.20
2022-10-17T08:49:52.517Z,6.88
2022-10-17T08:52:25.988Z,7.00
2022-10-17T08:54:53.681Z,6.37
2022-10-17T08:57:21.441Z,6.63
2022-10-17T08:59:53.613Z,6.60
2022-10-17T09:02:40.175Z,6.18
2022-10-17T09:05:26.853Z,6.43
2022-10-17T09:08:00.090Z,6.30
2022-10-17T09:10:35.179Z,5.97
2022-10-17T09:13:11.423Z,5.70
2022-10-17T09:15:47.274Z,5.90
2022-10-17T09:18:21.186Z,6.03
2022-10-17T09:20:52.857Z,6.57
2022-10-17T09:23:23.671Z,5.90
2022-10-17T09:25:54.140Z,6.13
2022-10-17T09:28:23.367Z,6.43
2022-10-17T09:30:57.051Z,6.13
2022-10-17T09:33:35.196Z,6.00
2022-10-17T09:36:14.656Z,6.53
2022-10-17T09:38:44.406Z,6.37
2022-10-17T09:41:44.439Z,6.00
2022-10-17T09:44:15.424Z,6.30
2022-10-17T09:46:50.578Z,6.78
2022-10-17T09:49:20.788Z,6.80
2022-10-17T09:51:49.315Z,6.28
2022-10-17T09:54:21.934Z,6.43
2022-10-17T09:57:01.460Z,6.97
2022-10-17T09:59:34.007Z,6.28
2022-10-17T10:02:19.770Z,6.15
2022-10-17T10:05:10.570Z,6.30
2022-10-17T10:07:39.613Z,6.30
2022-10-17T10:10:09.881Z,5.93
2022-10-17T10:12:39.543Z,6.70
2022-10-17T10:15:32.080Z,6.47
2022-10-17T10:18:01.239Z,6.45
2022-10-17T10:20:32.800Z,7.03
2022-10-17T10:23:15.939Z,7.10
2022-10-17T10:25:53.871Z,7.75
2022-10-17T10:28:23.456Z,8.07
2022-10-17T10:30:52.705Z,7.30
2022-10-17T10:33:23.826Z,7.57
2022-10-17T10:35:57.771Z,7.83
2022-10-17T10:38:25.541Z,6.78
2022-10-17T10:40:55.361Z,7.63
2022-10-17T10:43:26.311Z,8.18
2022-10-17T10:45:54.404Z,7.65
2022-10-17T10:48:25.049Z,8.32
2022-10-17T10:50:55.597Z,8.25
2022-10-17T10:53:44.289Z,9.05
2022-10-17T10:56:15.772Z,8.00
2022-10-17T10:58:52.103Z,8.90
2022-10-17T11:01:25.243Z,8.40
2022-10-17T11:04:07.963Z,8.40
2022-10-17T11:06:37.576Z,9.37
2022-10-17T11:09:14.399Z,8.75
2022-10-17T11:11:44.922Z,9.10
2022-10-17T11:14:16.212Z,8.57
2022-10-17T11:16:48.369Z,9.23
2022-10-17T11:19:21.928Z,8.80
2022-10-17T11:21:53.486Z,9.60
2022-10-17T11:24:25.523Z,9.32
2022-10-17T11:26:56.747Z,9.30
2022-10-17T11:29:28.493Z,9.02
2022-10-17T11:31:57.872Z,9.75
2022-10-17T11:34:28.434Z,9.35
2022-10-17T11:36:58.401Z,9.52
2022-10-17T11:39:31.377Z,9.70
2022-10-17T11:42:03.522Z,9.57
2022-10-17T11:44:35.681Z,10.20
2022-10-17T11:47:07.674Z,10.35
2022-10-17T11:49:41.853Z,11.07
2022-10-17T11:52:37.786Z,12.32
2022-10-17T11:55:13.699Z,12.35
2022-10-17T11:57:54.047Z,12.95
2022-10-17T12:00:32.650Z,13.93
2022-10-17T12:03:08.492Z,14.32
2022-10-17T12:05:42.570Z,13.50
2022-10-17T12:08:13.998Z,13.90
2022-10-17T12:10:47.592Z,14.00
2022-10-17T12:13:50.104Z,14.52
2022-10-17T12:16:51.011Z,15.17
2022-10-17T12:19:39.802Z,14.70
2022-10-17T12:22:20.792Z,14.90
2022-10-17T12:24:57.074Z,14.65
2022-10-17T12:27:39.339Z,14.10
2022-10-17T12:30:17.017Z,13.05
2022-10-17T12:33:07.447Z,14.50
2022-10-17T12:35:37.116Z,14.02
2022-10-17T12:38:30.165Z,13.98
2022-10-17T12:40:59.936Z,15.55
2022-10-17T12:43:56.076Z,14.45
2022-10-17T12:46:47.305Z,14.30
2022-10-17T12:49:37.834Z,12.68
2022-10-17T12:52:27.483Z,14.38
2022-10-17T12:55:12.014Z,12.75
2022-10-17T12:57:53.059Z,13.70
2022-10-17T13:00:24.548Z,14.60
2022-10-17T13:02:54.607Z,13.18
2022-10-17T13:05:28.303Z,13.73
2022-10-17T13:07:56.794Z,13.43
2022-10-17T13:10:28.225Z,14.40
2022-10-17T13:13:08.506Z,12.93
2022-10-17T13:15:37.322Z,14.68
2022-10-17T13:18:06.067Z,13.30
2022-10-17T13:20:33.974Z,13.60
2022-10-17T13:23:01.711Z,14.10
2022-10-17T13:25:31.009Z,14.02
2022-10-17T13:28:07.999Z,13.25
2022-10-17T13:30:36.886Z,14.25
2022-10-17T13:33:05.333Z,14.40
2022-10-17T13:35:55.715Z,13.10
2022-10-17T13:38:25.866Z,12.93
2022-10-17T13:41:01.703Z,11.90
2022-10-17T13:43:38.959Z,13.35
2022-10-17T13:46:32.304Z,13.38
2022-10-17T13:48:55.298Z,13.80
2022-10-17T13:51:23.289Z,13.52
2022-10-17T13:53:50.950Z,14.83
2022-10-17T13:56:28.226Z,14.07
2022-10-17T13:58:57.922Z,13.77
2022-10-17T14:01:26.974Z,15.73
2022-10-17T14:04:07.693Z,14.43
2022-10-17T14:06:39.293Z,15.55
2022-10-17T14:09:08.923Z,16.20
2022-10-17T14:11:39.622Z,15.75
2022-10-17T14:14:08.859Z,17.05
2022-10-17T14:16:39.176Z,16.55
2022-10-17T14:19:08.095Z,17.95
2022-10-17T14:21:43.709Z,15.77
2022-10-17T14:24:31.458Z,15.50
2022-10-17T14:27:01.298Z,16.00
2022-10-17T14:29:30.854Z,14.82
2022-10-17T14:32:00.503Z,17.45
2022-10-17T14:34:31.528Z,17.03
2022-10-17T14:36:59.382Z,15.32
2022-10-17T14:39:28.764Z,15.25
2022-10-17T14:41:58.724Z,17.98
2022-10-17T14:44:33.474Z,15.40
2022-10-17T14:47:18.152Z,15.57
2022-10-17T14:49:51.285Z,15.20
2022-10-17T14:52:32.785Z,14.50
2022-10-17T14:55:02.479Z,15.50
2022-10-17T14:57:42.308Z,16.33
2022-10-17T15:00:15.495Z,15.53
2022-10-17T15:02:43.226Z,14.25
2022-10-17T15:05:13.488Z,14.88
2022-10-17T15:07:41.513Z,14.98
2022-10-17T15:10:22.401Z,14.50
2022-10-17T15:12:57.564Z,15.18
2022-10-17T15:15:29.265Z,15.03
2022-10-17T15:17:56.932Z,14.13
2022-10-17T15:20:27.913Z,13.63
2022-10-17T15:22:56.248Z,13.82
2022-10-17T15:25:24.230Z,14.45
2022-10-17T15:27:51.923Z,14.73
2022-10-17T15:30:22.789Z,14.65
2022-10-17T15:32:53.451Z,14.57
2022-10-17T15:35:21.974Z,14.95
2022-10-17T15:37:50.373Z,15.18
2022-10-17T15:40:19.544Z,15.18
2022-10-17T15:42:47.370Z,14.48
2022-10-17T15:45:21.577Z,14.63
2022-10-17T15:47:53.798Z,13.77
2022-10-17T15:50:22.572Z,13.97
2022-10-17T15:52:52.222Z,13.45
2022-10-17T15:55:20.006Z,14.20
2022-10-17T15:57:49.070Z,14.40
2022-10-17T16:00:18.434Z,14.40
2022-10-17T16:02:46.538Z,13.80
2022-10-17T16:05:18.033Z,14.18
2022-10-17T16:07:46.867Z,14.55
2022-10-17T16:10:15.043Z,20.53
2022-10-17T16:12:43.344Z,23.45
2022-10-17T16:15:15.964Z,23.33
2022-10-17T16:17:43.975Z,25.05
2022-10-17T16:20:12.653Z,36.40
2022-10-17T16:22:43.642Z,49.22
2022-10-17T16:25:20.153Z,39.67
2022-10-17T16:27:48.407Z,30.85
2022-10-17T16:30:16.657Z,40.25
2022-10-17T16:32:44.412Z,35.78
2022-10-17T16:35:17.705Z,24.38
2022-10-17T16:37:47.510Z,23.05
2022-10-17T16:40:15.780Z,23.00
2022-10-17T16:42:43.763Z,16.85
2022-10-17T16:45:16.983Z,16.75
2022-10-17T16:47:44.709Z,17.08
2022-10-17T16:50:12.580Z,19.63
2022-10-17T16:52:40.237Z,19.45
2022-10-17T16:55:10.885Z,19.77
2022-10-17T16:57:38.745Z,18.10
2022-10-17T17:00:08.002Z,17.65
2022-10-17T17:02:35.742Z,15.82
2022-10-17T17:05:03.434Z,17.75
2022-10-17T17:07:31.326Z,16.30
2022-10-17T17:09:59.247Z,18.25
2022-10-17T17:12:28.318Z,17.20
2022-10-17T17:14:55.950Z,18.10
2022-10-17T17:17:36.913Z,18.98
2022-10-17T17:20:11.428Z,17.58
2022-10-17T17:22:39.933Z,16.73
2022-10-17T17:25:08.086Z,17.40
2022-10-17T17:27:37.117Z,18.05
2022-10-17T17:30:05.238Z,19.75
2022-10-17T17:32:33.858Z,18.47
2022-10-17T17:35:01.527Z,20.10
2022-10-17T17:37:29.590Z,18.35
2022-10-17T17:39:57.437Z,16.75
2022-10-17T17:42:25.126Z,16.40
2022-10-17T17:44:54.194Z,18.23
2022-10-17T17:47:21.779Z,18.15
2022-10-17T17:49:49.425Z,16.75
2022-10-17T17:52:17.143Z,16.48
2022-10-17T17:54:45.581Z,15.65
2022-10-17T17:57:13.296Z,17.80
2022-10-17T17:59:41.475Z,18.13
2022-10-17T18:02:10.897Z,20.95
2022-10-17T18:04:38.686Z,19.77
2022-10-17T18:07:06.454Z,18.73
2022-10-17T18:09:34.199Z,24.35
2022-10-17T18:12:01.879Z,21.27
2022-10-17T18:14:29.565Z,20.40
2022-10-17T18:16:57.201Z,18.83
2022-10-17T18:19:28.190Z,19.50
2022-10-17T18:21:55.859Z,19.57
2022-10-17T18:24:23.478Z,19.95
2022-10-17T18:26:53.873Z,19.80
2022-10-17T18:29:21.570Z,20.13
2022-10-17T18:31:49.165Z,21.58
2022-10-17T18:34:16.768Z,21.65
2022-10-17T18:36:45.837Z,22.80
2022-10-17T18:39:13.455Z,22.17
2022-10-17T18:41:41.074Z,24.00
2022-10-17T18:44:08.739Z,22.88
2022-10-17T18:46:40.798Z,22.90
2022-10-17T18:49:09.062Z,29.77
2022-10-17T18:51:36.790Z,26.00
2022-10-17T18:54:05.861Z,23.70
2022-10-17T18:56:33.537Z,23.65
2022-10-17T18:59:02.118Z,22.08
2022-10-17T19:01:29.733Z,23.03
2022-10-17T19:03:59.168Z,22.90
2022-10-17T19:06:28.180Z,23.50
2022-10-17T19:08:56.023Z,25.17
2022-10-17T19:11:26.804Z,23.90
2022-10-17T19:13:54.991Z,22.73
2022-10-17T19:16:24.816Z,23.83
2022-10-17T19:18:53.096Z,24.00
2022-10-17T19:21:22.054Z,24.25
2022-10-17T19:23:51.532Z,25.98
2022-10-17T19:26:20.026Z,25.48
2022-10-17T19:28:52.081Z,24.33
2022-10-17T19:31:26.215Z,22.75
2022-10-17T19:33:54.868Z,31.73
2022-10-17T19:36:25.401Z,27.45
2022-10-17T19:38:55.622Z,28.27
2022-10-17T19:41:23.659Z,25.65
2022-10-17T19:43:52.994Z,32.88
2022-10-17T19:46:27.213Z,30.42
2022-10-17T19:48:54.858Z,24.85
2022-10-17T19:51:24.364Z,25.25
2022-10-17T19:53:52.946Z,28.55
2022-10-17T19:56:21.054Z,25.60
2022-10-17T19:58:49.348Z,25.17
2022-10-17T20:01:20.182Z,28.50
2022-10-17T20:03:47.968Z,25.02
2022-10-17T20:06:16.129Z,26.95
2022-10-17T20:08:44.070Z,26.83
2022-10-17T20:11:13.759Z,31.63
2022-10-17T20:13:41.744Z,32.20
2022-10-17T20:16:16.583Z,28.98
2022-10-17T20:18:45.671Z,28.88
2022-10-17T20:21:15.665Z,31.83
2022-10-17T20:23:43.777Z,30.77
2022-10-17T20:26:33.181Z,32.65
2022-10-17T20:29:08.553Z,30.23
2022-10-17T20:31:36.415Z,28.95
2022-10-17T20:34:05.360Z,26.30
2022-10-17T20:36:36.981Z,26.35
2022-10-17T20:39:06.277Z,27.55
2022-10-17T20:41:34.516Z,28.90
2022-10-17T20:44:02.141Z,30.50
2022-10-17T20:46:39.682Z,26.77
2022-10-17T20:49:15.975Z,24.30
2022-10-17T20:51:44.005Z,24.33
2022-10-17T20:54:11.699Z,24.48
2022-10-17T20:56:39.827Z,25.13
2022-10-17T20:59:09.165Z,24.27
2022-10-17T21:01:37.013Z,27.08
2022-10-17T21:04:26.907Z,25.73
2022-10-17T21:06:54.492Z,25.98
2022-10-17T21:09:22.928Z,25.42
2022-10-17T21:11:55.019Z,24.65
2022-10-17T21:14:23.645Z,27.73
2022-10-17T21:16:52.224Z,26.77
2022-10-17T21:19:21.574Z,25.95
2022-10-17T21:21:49.222Z,25.58
2022-10-17T21:24:20.450Z,25.67
2022-10-17T21:26:50.091Z,27.88
2022-10-17T21:29:17.851Z,25.03
2022-10-17T21:31:45.644Z,24.27
2022-10-17T21:34:15.289Z,27.00
2022-10-17T21:36:44.066Z,29.67
2022-10-17T21:39:12.231Z,27.97
2022-10-17T21:41:41.822Z,24.67
2022-10-17T21:44:13.201Z,24.70
2022-10-17T21:46:40.853Z,24.88
2022-10-17T21:49:08.521Z,26.92
2022-10-17T21:51:36.170Z,24.33
2022-10-17T21:54:05.695Z,21.92
2022-10-17T21:56:34.708Z,24.08
2022-10-17T21:59:04.833Z,26.88
2022-10-17T22:01:34.369Z,27.77
2022-10-17T22:04:03.738Z,26.38
2022-10-17T22:06:39.688Z,27.98
2022-10-17T22:09:10.307Z,23.33
2022-10-17T22:11:38.139Z,22.77
2022-10-17T22:14:08.635Z,21.00
2022-10-17T22:16:36.457Z,21.25
2022-10-17T22:19:06.675Z,22.15
2022-10-17T22:21:35.537Z,24.80
2022-10-17T22:24:04.975Z,21.07
2022-10-17T22:26:34.444Z,21.65
2022-10-17T22:29:02.504Z,20.35
2022-10-17T22:31:31.636Z,25.02
2022-10-17T22:33:59.262Z,22.20
2022-10-17T22:36:26.983Z,20.10
2022-10-17T22:38:54.693Z,20.70
2022-10-17T22:41:23.209Z,18.25
2022-10-17T22:43:50.906Z,20.38
2022-10-17T22:46:18.577Z,24.10
2022-10-17T22:48:47.622Z,22.40
2022-10-17T22:51:15.495Z,22.40
2022-10-17T22:53:43.272Z,21.55
2022-10-17T22:56:12.851Z,20.55
2022-10-17T22:58:40.808Z,22.30
2022-10-17T23:01:09.483Z,21.67
2022-10-17T23:03:37.147Z,23.08
2022-10-17T23:06:06.499Z,20.90
2022-10-17T23:08:34.174Z,26.55
2022-10-17T23:11:01.822Z,26.55
2022-10-17T23:13:29.468Z,31.92
2022-10-17T23:15:58.373Z,40.53
2022-10-17T23:18:26.973Z,38.72
2022-10-17T23:20:55.130Z,30.23
2022-10-17T23:23:24.457Z,30.30
2022-10-17T23:25:52.112Z,34.03
2022-10-17T23:28:19.931Z,30.10
2022-10-17T23:30:47.587Z,32.73
2022-10-17T23:33:15.543Z,31.63
2022-10-17T23:35:43.192Z,30.30
2022-10-17T23:38:10.867Z,30.38
2022-10-17T23:40:39.886Z,31.00
2022-10-17T23:43:07.578Z,32.13
2022-10-17T23:45:37.156Z,34.17
2022-10-17T23:48:05.664Z,40.53
2022-10-17T23:50:33.320Z,37.73
2022-10-17T23:53:00.897Z,45.85
2022-10-17T23:55:28.743Z,41.47
2022-10-17T23:57:57.773Z,40.85
